createdAt,value
2018-12-22T00:03:00.000Z,2.3
2018-12-22T00:08:00.000Z,2.2
2018-12-22T00:13:00.000Z,2.2
2018-12-22T00:18:00.000Z,2.1
2018-12-22T00:23:00.000Z,2.1
2018-12-22T00:28:00.000Z,2.1
2018-12-22T00:33:00.000Z,2.1
2018-12-22T00:38:00.000Z,2.1
2018-12-22T00:43:00.000Z,2.2
2018-12-22T00:48:00.000Z,2.2
2018-12-22T00:53:00.000Z,2.3
2018-12-22T00:58:00.000Z,2.3
2018-12-22T01:03:00.000Z,2.3
2018-12-22T01:08:00.000Z,2.4
2018-12-22T01:13:00.000Z,2.5
2018-12-22T01:18:00.000Z,2.6
2018-12-22T01:23:00.000Z,2.7
2018-12-22T01:28:00.000Z,2.8
2018-12-22T01:33:00.000Z,2.9
2018-12-22T01:38:00.000Z,3.0
2018-12-22T01:43:00.000Z,3.2
2018-12-22T01:48:00.000Z,3.5
2018-12-22T01:53:00.000Z,3.7
2018-12-22T01:58:00.000Z,3.9
2018-12-22T02:03:00.000Z,4.1
2018-12-22T02:08:00.000Z,4.2
2018-12-22T02:13:00.000Z,4.3
2018-12-22T02:18:00.000Z,4.4
2018-12-22T02:23:00.000Z,4.5
2018-12-22T02:28:00.000Z,4.6
2018-12-22T02:33:00.000Z,4.7
2018-12-22T02:38:00.000Z,4.8
2018-12-22T02:43:00.000Z,4.9
2018-12-22T02:48:00.000Z,5.0
2018-12-22T02:54:00.000Z,5.1
2018-12-22T02:59:00.000Z,5.2
2018-12-22T03:04:00.000Z,5.4
2018-12-22T03:09:00.000Z,5.6
2018-12-22T03:14:00.000Z,5.8
2018-12-22T03:19:00.000Z,5.8
2018-12-22T03:24:00.000Z,5.8
2018-12-22T03:29:00.000Z,5.6
2018-12-22T03:34:00.000Z,5.4
2018-12-22T03:39:00.000Z,5.5
2018-12-22T03:44:00.000Z,5.6
2018-12-22T03:49:00.000Z,5.7
2018-12-22T03:54:00.000Z,5.9
2018-12-22T03:59:00.000Z,6.1
2018-12-22T04:04:00.000Z,6.0
2018-12-22T04:09:00.000Z,5.9
2018-12-22T04:14:00.000Z,5.8
2018-12-22T04:19:00.000Z,5.8
2018-12-22T04:24:00.000Z,6.1
2018-12-22T04:29:00.000Z,6.3
2018-12-22T04:34:00.000Z,6.5
2018-12-22T04:39:00.000Z,6.8
2018-12-22T04:44:00.000Z,7.0
2018-12-22T04:49:00.000Z,7.3
2018-12-22T04:54:00.000Z,7.5
2018-12-22T04:59:00.000Z,7.7
2018-12-22T05:04:00.000Z,7.9
2018-12-22T05:09:00.000Z,7.9
2018-12-22T05:14:00.000Z,7.9
2018-12-22T05:19:00.000Z,8.1
2018-12-22T05:24:00.000Z,8.3
2018-12-22T05:29:00.000Z,8.5
2018-12-22T05:34:00.000Z,8.5
2018-12-22T05:39:00.000Z,8.6
2018-12-22T05:44:00.000Z,8.7
2018-12-22T05:49:00.000Z,8.7
2018-12-22T05:54:00.000Z,8.8
2018-12-22T05:59:00.000Z,8.9
2018-12-22T06:05:00.000Z,9.0
2018-12-22T06:10:00.000Z,9.1
2018-12-22T06:15:00.000Z,9.1
2018-12-22T06:20:00.000Z,9.0
2018-12-22T06:25:00.000Z,8.8
2018-12-22T06:30:00.000Z,8.6
2018-12-22T06:35:00.000Z,8.5
2018-12-22T06:40:00.000Z,8.4
2018-12-22T06:45:00.000Z,8.4
2018-12-22T06:50:00.000Z,8.4
2018-12-22T06:55:00.000Z,8.5
2018-12-22T07:00:00.000Z,8.6
2018-12-22T07:05:00.000Z,8.8
2018-12-22T07:10:00.000Z,8.9
2018-12-22T07:15:00.000Z,8.8
2018-12-22T07:20:00.000Z,8.8
2018-12-22T07:25:00.000Z,8.8
2018-12-22T07:30:00.000Z,9.0
2018-12-22T07:35:00.000Z,9.2
2018-12-22T07:40:00.000Z,9.4
2018-12-22T07:45:00.000Z,9.6
2018-12-22T07:50:00.000Z,9.8
2018-12-22T07:55:00.000Z,10.0
2018-12-22T08:00:00.000Z,10.2
2018-12-22T08:05:00.000Z,10.3
2018-12-22T08:10:00.000Z,10.3
2018-12-22T08:15:00.000Z,10.3
2018-12-22T08:20:00.000Z,10.3
2018-12-22T08:25:00.000Z,10.3
2018-12-22T08:30:00.000Z,10.3
2018-12-22T08:35:00.000Z,10.4
2018-12-22T08:40:00.000Z,10.4
2018-12-22T08:45:00.000Z,10.4
2018-12-22T08:50:00.000Z,10.4
2018-12-22T08:55:00.000Z,10.3
2018-12-22T09:00:00.000Z,10.3
2018-12-22T09:05:00.000Z,10.3
2018-12-22T09:10:00.000Z,10.3
2018-12-22T09:15:00.000Z,10.3
2018-12-22T09:20:00.000Z,10.3
2018-12-22T09:25:00.000Z,10.4
2018-12-22T09:30:00.000Z,10.5
2018-12-22T09:36:00.000Z,10.7
2018-12-22T09:41:00.000Z,10.9
2018-12-22T09:46:00.000Z,10.9
2018-12-22T09:51:00.000Z,10.9
2018-12-22T09:56:00.000Z,10.8
2018-12-22T10:01:00.000Z,10.8
2018-12-22T10:06:00.000Z,10.8
2018-12-22T10:11:00.000Z,10.8
2018-12-22T10:16:00.000Z,10.7
2018-12-22T10:21:00.000Z,10.6
2018-12-22T10:26:00.000Z,10.6
2018-12-22T10:31:00.000Z,10.5
2018-12-22T10:36:00.000Z,10.5
2018-12-22T10:41:00.000Z,10.4
2018-12-22T10:46:00.000Z,10.4
2018-12-22T10:51:00.000Z,10.4
2018-12-22T10:56:00.000Z,10.4
2018-12-22T11:01:00.000Z,10.5
2018-12-22T11:06:00.000Z,10.5
2018-12-22T11:11:00.000Z,10.6
2018-12-22T11:16:00.000Z,10.7
2018-12-22T11:21:00.000Z,10.9
2018-12-22T11:26:00.000Z,10.9
2018-12-22T11:31:00.000Z,10.9
2018-12-22T11:36:00.000Z,11.0
2018-12-22T11:41:00.000Z,11.1
2018-12-22T11:46:00.000Z,11.3
2018-12-22T11:51:00.000Z,11.4
2018-12-22T11:56:00.000Z,11.5
2018-12-22T12:01:00.000Z,11.4
2018-12-22T12:06:00.000Z,11.3
2018-12-22T12:11:00.000Z,11.3
2018-12-22T12:16:00.000Z,11.4
2018-12-22T12:21:00.000Z,11.4
2018-12-22T12:26:00.000Z,11.4
2018-12-22T12:31:00.000Z,11.4
2018-12-22T12:36:00.000Z,11.4
2018-12-22T12:41:00.000Z,11.4
2018-12-22T12:46:00.000Z,11.3
2018-12-22T12:51:00.000Z,11.2
2018-12-22T12:56:00.000Z,10.9
2018-12-22T13:01:00.000Z,10.7
2018-12-22T13:07:00.000Z,10.7
2018-12-22T13:12:00.000Z,10.6
2018-12-22T13:17:00.000Z,10.6
2018-12-22T13:22:00.000Z,10.7
2018-12-22T13:27:00.000Z,10.7
2018-12-22T13:32:00.000Z,10.8
2018-12-22T13:37:00.000Z,10.8
2018-12-22T13:42:00.000Z,10.9
2018-12-22T13:47:00.000Z,10.9
2018-12-22T13:52:00.000Z,10.9
2018-12-22T13:57:00.000Z,11.0
2018-12-22T14:02:00.000Z,11.0
2018-12-22T14:07:00.000Z,11.0
2018-12-22T14:12:00.000Z,11.0
2018-12-22T14:17:00.000Z,11.0
2018-12-22T14:22:00.000Z,11.0
2018-12-22T14:27:00.000Z,11.0
2018-12-22T14:32:00.000Z,11.0
2018-12-22T14:37:00.000Z,11.1
2018-12-22T14:42:00.000Z,11.1
2018-12-22T14:47:00.000Z,11.1
2018-12-22T14:52:00.000Z,11.1
2018-12-22T14:57:00.000Z,11.1
2018-12-22T15:02:00.000Z,11.0
2018-12-22T15:07:00.000Z,11.0
2018-12-22T15:12:00.000Z,11.0
2018-12-22T15:17:00.000Z,11.0
2018-12-22T15:22:00.000Z,10.9
2018-12-22T15:27:00.000Z,10.9
2018-12-22T15:32:00.000Z,10.9
2018-12-22T15:37:00.000Z,10.9
2018-12-22T15:42:00.000Z,10.9
2018-12-22T15:47:00.000Z,10.9
2018-12-22T15:52:00.000Z,10.8
2018-12-22T15:57:00.000Z,10.8
2018-12-22T16:02:00.000Z,10.8
2018-12-22T16:07:00.000Z,10.7
2018-12-22T16:13:00.000Z,10.7
2018-12-22T16:18:00.000Z,10.7
2018-12-22T16:23:00.000Z,10.6
2018-12-22T16:28:00.000Z,10.6
2018-12-22T16:33:00.000Z,10.6
2018-12-22T16:38:00.000Z,10.5
2018-12-22T16:43:00.000Z,10.5
2018-12-22T16:48:00.000Z,10.5
2018-12-22T16:53:00.000Z,10.5
2018-12-22T16:58:00.000Z,10.5
2018-12-22T17:03:00.000Z,10.4
2018-12-22T17:08:00.000Z,10.2
2018-12-22T17:13:00.000Z,9.9
2018-12-22T17:18:00.000Z,9.7
2018-12-22T17:23:00.000Z,9.6
2018-12-22T17:28:00.000Z,9.6
2018-12-22T17:33:00.000Z,9.6
2018-12-22T17:38:00.000Z,9.5
2018-12-22T17:43:00.000Z,9.4
2018-12-22T17:48:00.000Z,9.3
2018-12-22T17:53:00.000Z,9.2
2018-12-22T17:58:00.000Z,9.1
2018-12-22T18:03:00.000Z,9.1
2018-12-22T18:08:00.000Z,9.1
2018-12-22T18:13:00.000Z,9.1
2018-12-22T18:18:00.000Z,9.1
2018-12-22T18:23:00.000Z,9.2
2018-12-22T18:28:00.000Z,9.2
2018-12-22T18:33:00.000Z,9.3
2018-12-22T18:38:00.000Z,9.4
2018-12-22T18:43:00.000Z,9.5
2018-12-22T18:48:00.000Z,9.6
2018-12-22T18:53:00.000Z,9.6
2018-12-22T18:58:00.000Z,9.6
2018-12-22T19:03:00.000Z,9.6
2018-12-22T19:08:00.000Z,9.6
2018-12-22T19:13:00.000Z,9.6
2018-12-22T19:18:00.000Z,9.6
2018-12-22T19:23:00.000Z,9.5
2018-12-22T19:28:00.000Z,9.5
2018-12-22T19:33:00.000Z,9.4
2018-12-22T19:38:00.000Z,9.4
2018-12-22T19:43:00.000Z,9.4
2018-12-22T19:48:00.000Z,9.3
2018-12-22T19:53:00.000Z,9.3
2018-12-22T19:58:00.000Z,9.3
2018-12-22T20:03:00.000Z,9.2
2018-12-22T20:09:00.000Z,9.2
2018-12-22T20:14:00.000Z,9.2
2018-12-22T20:19:00.000Z,9.2
2018-12-22T20:24:00.000Z,9.2
2018-12-22T20:29:00.000Z,9.2
2018-12-22T20:34:00.000Z,9.2
2018-12-22T20:39:00.000Z,9.2
2018-12-22T20:44:00.000Z,9.2
2018-12-22T20:49:00.000Z,9.1
2018-12-22T20:54:00.000Z,9.1
2018-12-22T20:59:00.000Z,9.1
2018-12-22T21:04:00.000Z,9.1
2018-12-22T21:09:00.000Z,9.1
2018-12-22T21:14:00.000Z,9.1
2018-12-22T21:19:00.000Z,9.1
2018-12-22T21:24:00.000Z,9.0
2018-12-22T21:29:00.000Z,9.0
2018-12-22T21:34:00.000Z,9.0
2018-12-22T21:39:00.000Z,9.0
2018-12-22T21:44:00.000Z,9.0
2018-12-22T21:49:00.000Z,9.0
2018-12-22T21:54:00.000Z,9.0
2018-12-22T21:59:00.000Z,8.9
2018-12-22T22:04:00.000Z,8.9
2018-12-22T22:09:00.000Z,8.9
2018-12-22T22:14:00.000Z,8.9
2018-12-22T22:19:00.000Z,8.9
2018-12-22T22:24:00.000Z,8.9
2018-12-22T22:29:00.000Z,8.9
2018-12-22T22:34:00.000Z,9.0
2018-12-22T22:39:00.000Z,8.9
2018-12-22T22:44:00.000Z,8.9
2018-12-22T22:49:00.000Z,8.9
2018-12-22T22:54:00.000Z,8.9
2018-12-22T22:59:00.000Z,8.9
2018-12-22T23:04:00.000Z,8.9
2018-12-22T23:09:00.000Z,8.9
2018-12-22T23:14:00.000Z,8.9
2018-12-22T23:19:00.000Z,8.9
2018-12-22T23:24:00.000Z,9.0
2018-12-22T23:29:00.000Z,9.0
2018-12-22T23:34:00.000Z,9.0
2018-12-22T23:40:00.000Z,9.0
2018-12-22T23:45:00.000Z,9.0
2018-12-22T23:50:00.000Z,9.0
2018-12-22T23:55:00.000Z,9.0
